Time;durP1;ratioP1;P1;durP2;ratioP2;P2;SDS_P1;SDS_P2;PMS_P1;PMS_P2;Temp;Humidity;BMP_temperature;BMP_pressure;BME280_temperature;BME280_humidity;BME280_pressure;Samples;Min_cycle;Max_cycle;Signal;HPM_P1;HPM_P2
2023/09/29 00:25:33;;;;;;;20.15;8.35;;;13.90;99.90;;;;;;5092499;27;20337;-78
2023/09/29 00:28:00;;;;;;;21.05;7.75;;;13.80;99.90;;;;;;5090483;28;20024;-77
2023/09/29 00:30:26;;;;;;;20.58;8.07;;;13.90;99.90;;;;;;5088926;28;20052;-78
2023/09/29 00:32:53;;;;;;;16.88;7.60;;;13.90;99.90;;;;;;5090632;28;20408;-79
2023/09/29 00:37:50;;;;;;;27.55;14.43;;;14.10;99.90;;;;;;5090363;28;20056;-77
2023/09/29 00:40:15;;;;;;;44.38;31.20;;;14.10;99.90;;;;;;5090432;28;20453;-77
2023/09/29 00:42:46;;;;;;;47.17;28.55;;;14.20;99.90;;;;;;5089180;28;20100;-77
2023/09/29 00:45:16;;;;;;;31.73;17.45;;;14.20;99.90;;;;;;5090083;28;20093;-79
2023/09/29 00:47:43;;;;;;;21.63;9.88;;;14.30;99.90;;;;;;5090950;28;20028;-78
2023/09/29 00:50:10;;;;;;;20.63;8.45;;;14.30;99.90;;;;;;5089899;28;20116;-78
2023/09/29 00:52:40;;;;;;;17.75;8.10;;;14.30;99.90;;;;;;5089906;28;20043;-79
2023/09/29 00:55:12;;;;;;;16.48;8.05;;;14.40;99.90;;;;;;5090283;28;20026;-77
2023/09/29 00:57:40;;;;;;;12.88;7.43;;;14.40;99.90;;;;;;5089698;28;20032;-77
2023/09/29 01:00:53;;;;;;;16.10;7.20;;;14.40;99.90;;;;;;5089885;28;20115;-78
2023/09/29 01:02:54;;;;;;;15.95;7.80;;;14.40;99.90;;;;;;5078601;28;20036;-79
2023/09/29 01:05:20;;;;;;;17.60;7.05;;;14.40;99.90;;;;;;5088280;28;20028;-77
2023/09/29 01:07:46;;;;;;;21.45;7.85;;;14.40;99.90;;;;;;5090075;28;20042;-76
2023/09/29 01:10:13;;;;;;;19.80;7.18;;;14.40;99.90;;;;;;5090114;28;20450;-77
2023/09/29 01:12:40;;;;;;;13.85;6.93;;;14.50;99.90;;;;;;5089652;28;20064;-77
2023/09/29 01:15:08;;;;;;;21.98;7.32;;;14.50;99.90;;;;;;5089497;28;20412;-78
2023/09/29 01:17:33;;;;;;;16.48;7.07;;;14.40;99.90;;;;;;5089361;28;20478;-78
2023/09/29 01:19:59;;;;;;;19.90;7.32;;;14.40;99.90;;;;;;5088227;28;20021;-76
2023/09/29 01:22:26;;;;;;;15.70;7.53;;;14.50;99.90;;;;;;5088331;28;20039;-77
2023/09/29 01:24:51;;;;;;;15.75;7.63;;;14.40;99.90;;;;;;5088326;28;20044;-76
2023/09/29 01:27:17;;;;;;;19.13;7.35;;;14.40;99.90;;;;;;5089174;28;20367;-77
2023/09/29 01:29:43;;;;;;;17.55;7.75;;;14.30;99.90;;;;;;5089454;28;20385;-77
2023/09/29 01:32:12;;;;;;;20.08;7.35;;;14.30;99.90;;;;;;5089078;28;20367;-76
2023/09/29 01:34:38;;;;;;;16.42;6.72;;;14.30;99.90;;;;;;5088953;28;20032;-76
2023/09/29 01:37:04;;;;;;;22.08;7.95;;;14.30;99.90;;;;;;5075864;28;20455;-78
2023/09/29 01:39:31;;;;;;;13.77;6.60;;;14.30;99.90;;;;;;5074796;28;20025;-78
2023/09/29 01:41:57;;;;;;;14.35;7.18;;;14.30;99.90;;;;;;5075921;28;20024;-76
2023/09/29 01:44:22;;;;;;;17.15;7.35;;;14.20;99.90;;;;;;5076384;28;20522;-77
2023/09/29 01:46:49;;;;;;;16.27;7.80;;;14.20;99.90;;;;;;5076163;28;20459;-76
2023/09/29 01:49:15;;;;;;;37.90;9.43;;;14.20;99.90;;;;;;5075092;28;20025;-76
2023/09/29 01:51:44;;;;;;;15.27;8.50;;;14.10;99.90;;;;;;5075189;28;20459;-76
2023/09/29 01:54:10;;;;;;;26.23;8.65;;;14.10;99.90;;;;;;5075552;28;20458;-77
2023/09/29 01:56:36;;;;;;;17.27;7.63;;;14.10;99.90;;;;;;5076165;28;20025;-76
2023/09/29 01:59:02;;;;;;;14.45;7.50;;;14.00;99.90;;;;;;5074969;28;20176;-77
2023/09/29 02:01:29;;;;;;;24.45;7.78;;;14.00;99.90;;;;;;5075699;28;20515;-78
2023/09/29 02:03:55;;;;;;;12.63;7.25;;;14.00;99.90;;;;;;5074735;28;20020;-77
2023/09/29 02:06:21;;;;;;;16.73;7.50;;;14.00;99.90;;;;;;5076143;28;20107;-76
2023/09/29 02:08:47;;;;;;;19.35;7.82;;;14.00;99.90;;;;;;5075668;28;20359;-77
2023/09/29 02:11:12;;;;;;;16.30;7.65;;;14.00;99.90;;;;;;5075670;28;20130;-77
2023/09/29 02:13:38;;;;;;;13.38;7.10;;;13.90;99.90;;;;;;5063679;28;20055;-77
2023/09/29 02:16:15;;;;;;;16.77;7.35;;;13.90;99.90;;;;;;5064678;28;20455;-78
2023/09/29 02:18:41;;;;;;;22.50;6.68;;;13.90;99.90;;;;;;5074552;28;20441;-77
2023/09/29 02:21:07;;;;;;;12.85;6.55;;;13.90;99.90;;;;;;5075415;28;20032;-77
2023/09/29 02:23:34;;;;;;;11.40;6.03;;;13.90;99.90;;;;;;5073123;28;20048;-77
2023/09/29 02:26:00;;;;;;;12.13;6.30;;;13.90;99.90;;;;;;5075272;28;20013;-76
2023/09/29 02:28:30;;;;;;;13.43;5.82;;;13.80;99.90;;;;;;5073195;28;20020;-77
2023/09/29 02:30:57;;;;;;;12.50;6.00;;;13.70;99.90;;;;;;5074295;28;20020;-76
2023/09/29 02:33:24;;;;;;;15.70;6.22;;;13.70;99.90;;;;;;5075223;28;20025;-77
2023/09/29 02:35:50;;;;;;;14.77;6.32;;;13.70;99.90;;;;;;5074340;28;20017;-77
2023/09/29 02:38:16;;;;;;;8.25;5.40;;;13.70;99.90;;;;;;5073130;28;20044;-76
2023/09/29 02:40:42;;;;;;;9.90;5.78;;;13.70;99.90;;;;;;5073831;28;20020;-78
2023/09/29 02:43:09;;;;;;;11.35;5.97;;;13.70;99.90;;;;;;5072993;28;20016;-76
2023/09/29 02:45:41;;;;;;;17.67;6.28;;;13.70;99.90;;;;;;5073544;28;20054;-77
2023/09/29 02:48:07;;;;;;;11.73;6.40;;;13.60;99.90;;;;;;5073977;28;20033;-77
2023/09/29 02:50:36;;;;;;;11.45;6.10;;;13.60;99.90;;;;;;5074482;28;20032;-77
2023/09/29 02:53:03;;;;;;;16.23;5.93;;;13.60;99.90;;;;;;5073149;28;20050;-77
2023/09/29 02:55:29;;;;;;;11.20;5.82;;;13.50;99.90;;;;;;5073031;28;20161;-77
2023/09/29 02:57:55;;;;;;;16.30;6.38;;;13.60;99.90;;;;;;5070248;28;20013;-76
2023/09/29 03:00:26;;;;;;;11.63;5.90;;;13.60;99.90;;;;;;5073702;28;20016;-77
2023/09/29 03:02:52;;;;;;;;;;;13.50;99.90;;;;;;5066605;28;20250;-77
2023/09/29 03:05:22;;;;;;;14.45;5.97;;;13.50;99.90;;;;;;5072588;28;19991;-77
2023/09/29 03:07:48;;;;;;;11.27;6.03;;;13.60;99.90;;;;;;5072183;28;20032;-77
2023/09/29 03:10:15;;;;;;;13.63;6.60;;;13.50;99.90;;;;;;5073372;28;20024;-78
2023/09/29 03:12:45;;;;;;;13.20;6.63;;;13.60;99.90;;;;;;5073677;28;20012;-78
2023/09/29 03:15:15;;;;;;;15.35;6.50;;;13.60;99.90;;;;;;5073454;28;20459;-77
2023/09/29 03:17:41;;;;;;;13.15;6.72;;;13.60;99.90;;;;;;5073399;28;20364;-77
2023/09/29 03:20:10;;;;;;;9.85;5.80;;;13.60;99.90;;;;;;5074096;28;20069;-76
2023/09/29 03:22:41;;;;;;;14.68;6.70;;;13.60;99.90;;;;;;5074218;28;20027;-77
2023/09/29 03:25:09;;;;;;;10.00;6.30;;;13.70;99.90;;;;;;5090400;28;20109;-78
2023/09/29 03:27:36;;;;;;;13.02;5.93;;;13.60;99.90;;;;;;5094131;28;20076;-78
2023/09/29 03:30:04;;;;;;;10.73;5.53;;;13.70;99.90;;;;;;5094535;28;20027;-78
2023/09/29 03:32:30;;;;;;;15.55;6.10;;;13.60;99.90;;;;;;5075979;28;20027;-78
2023/09/29 03:34:56;;;;;;;16.10;6.28;;;13.60;99.90;;;;;;5076518;28;20035;-77
2023/09/29 03:37:23;;;;;;;16.13;6.03;;;13.60;99.90;;;;;;5094236;28;20035;-76
2023/09/29 03:39:49;;;;;;;14.60;6.38;;;13.50;99.90;;;;;;5094197;28;20438;-76
2023/09/29 03:42:16;;;;;;;12.55;7.00;;;13.60;99.90;;;;;;5097864;28;20028;-76
2023/09/29 03:44:44;;;;;;;14.07;6.55;;;13.60;99.90;;;;;;5093473;28;20485;-77
2023/09/29 03:47:12;;;;;;;15.10;6.90;;;13.60;99.90;;;;;;5093681;28;20027;-76
2023/09/29 03:49:38;;;;;;;12.60;7.13;;;13.60;99.90;;;;;;5075058;28;20027;-78
2023/09/29 03:52:08;;;;;;;13.55;7.65;;;13.50;99.90;;;;;;5074644;28;20020;-78
2023/09/29 03:54:34;;;;;;;12.48;7.43;;;13.50;99.90;;;;;;5093107;28;20026;-78
2023/09/29 03:57:03;;;;;;;13.32;7.65;;;13.60;99.90;;;;;;5065523;28;20062;-76
2023/09/29 03:59:30;;;;;;;13.68;7.05;;;13.60;99.90;;;;;;5091822;28;20024;-76
2023/09/29 04:01:56;;;;;;;20.52;7.70;;;13.60;99.90;;;;;;5074926;28;20362;-78
2023/09/29 04:04:21;;;;;;;18.65;8.13;;;13.50;99.90;;;;;;5075334;28;20058;-78
2023/09/29 04:06:47;;;;;;;17.58;7.18;;;13.50;99.90;;;;;;5093413;28;20415;-77
2023/09/29 04:09:13;;;;;;;18.40;8.60;;;13.50;99.90;;;;;;5093630;28;20055;-77
2023/09/29 04:11:41;;;;;;;16.25;8.52;;;13.40;99.90;;;;;;5074886;28;20077;-78
2023/09/29 04:14:07;;;;;;;28.27;10.38;;;13.50;99.90;;;;;;5092934;28;20028;-78
2023/09/29 04:16:33;;;;;;;21.58;9.63;;;13.50;99.90;;;;;;5093385;28;20032;-78
2023/09/29 04:18:58;;;;;;;35.05;8.50;;;13.40;99.90;;;;;;5093125;28;20076;-78
2023/09/29 04:21:24;;;;;;;23.88;11.05;;;13.50;99.90;;;;;;5092527;28;20028;-78
2023/09/29 04:23:50;;;;;;;28.63;10.90;;;13.50;99.90;;;;;;5092939;28;20044;-76
2023/09/29 04:26:19;;;;;;;23.40;11.20;;;13.50;99.90;;;;;;5091517;28;20044;-77
2023/09/29 04:28:45;;;;;;;19.85;11.88;;;13.50;99.90;;;;;;5093236;28;20028;-77
2023/09/29 04:31:12;;;;;;;23.02;11.20;;;13.40;99.90;;;;;;5074278;28;20024;-78
2023/09/29 04:33:39;;;;;;;20.27;11.77;;;13.40;99.90;;;;;;5092170;28;20095;-78
2023/09/29 04:36:06;;;;;;;33.53;14.93;;;13.40;99.90;;;;;;5092662;28;20059;-76
2023/09/29 04:38:32;;;;;;;22.48;13.65;;;13.40;99.90;;;;;;5075339;28;20039;-76
2023/09/29 04:40:58;;;;;;;36.22;13.48;;;13.50;99.90;;;;;;5075512;28;20020;-77
2023/09/29 04:43:24;;;;;;;33.90;13.57;;;13.40;99.90;;;;;;5075440;28;20046;-78
2023/09/29 04:45:50;;;;;;;34.92;13.93;;;13.40;99.90;;;;;;5093933;28;20366;-76
2023/09/29 04:48:16;;;;;;;27.35;14.73;;;13.50;99.90;;;;;;5093546;28;20066;-78
2023/09/29 04:50:42;;;;;;;41.65;15.32;;;13.50;99.90;;;;;;5093746;28;20016;-77
2023/09/29 04:53:08;;;;;;;35.83;14.13;;;13.50;99.90;;;;;;5093819;28;20028;-77
2023/09/29 04:55:34;;;;;;;28.65;12.73;;;13.50;99.90;;;;;;5092990;28;20362;-76
2023/09/29 04:57:59;;;;;;;26.70;10.73;;;13.50;99.90;;;;;;5093592;28;20027;-77
2023/09/29 05:00:26;;;;;;;25.58;10.70;;;13.50;99.90;;;;;;5075371;28;20024;-79
2023/09/29 05:02:52;;;;;;;33.55;12.75;;;13.50;99.90;;;;;;5093707;28;20024;-78
2023/09/29 05:05:18;;;;;;;28.08;12.77;;;13.50;99.90;;;;;;5093445;28;20107;-78
2023/09/29 05:07:44;;;;;;;33.33;13.00;;;13.40;99.90;;;;;;5093387;28;20507;-76
2023/09/29 05:10:13;;;;;;;34.58;14.95;;;13.40;99.90;;;;;;5093395;28;20066;-78
2023/09/29 05:12:40;;;;;;;24.95;15.35;;;13.30;99.90;;;;;;5096911;28;20449;-78
2023/09/29 05:15:07;;;;;;;35.20;18.60;;;13.30;99.90;;;;;;5096980;28;20052;-76
2023/09/29 05:17:33;;;;;;;39.35;18.17;;;13.40;99.90;;;;;;5092836;28;20032;-77
2023/09/29 05:19:59;;;;;;;29.67;17.42;;;13.40;99.90;;;;;;5059958;28;20020;-79
2023/09/29 05:22:24;;;;;;;35.72;17.88;;;13.50;99.90;;;;;;5097132;28;20050;-77
2023/09/29 05:24:53;;;;;;;28.92;15.65;;;13.50;99.90;;;;;;5096656;28;20381;-77
2023/09/29 05:27:20;;;;;;;30.63;15.60;;;13.50;99.90;;;;;;5079258;28;20343;-76
2023/09/29 05:29:46;;;;;;;25.92;14.73;;;13.60;99.90;;;;;;5097056;28;20022;-78
2023/09/29 05:32:12;;;;;;;28.75;14.45;;;13.60;99.90;;;;;;5096664;28;20111;-76
2023/09/29 05:34:38;;;;;;;28.45;16.17;;;13.50;99.90;;;;;;5097413;28;20432;-76
2023/09/29 05:37:04;;;;;;;40.20;15.45;;;13.60;99.90;;;;;;5096479;28;20054;-77
2023/09/29 05:39:31;;;;;;;27.77;15.63;;;13.70;99.90;;;;;;5096815;28;20020;-76
2023/09/29 05:41:57;;;;;;;32.60;14.90;;;13.70;99.90;;;;;;5096878;28;20020;-78
2023/09/29 05:44:23;;;;;;;35.78;15.80;;;13.70;99.90;;;;;;5096683;28;20046;-79
2023/09/29 05:46:49;;;;;;;29.52;14.63;;;13.60;99.90;;;;;;5078292;28;20028;-76
2023/09/29 05:49:15;;;;;;;30.55;14.43;;;13.70;99.90;;;;;;5096315;28;20111;-76
2023/09/29 05:51:40;;;;;;;29.50;14.38;;;13.80;99.90;;;;;;5096022;28;20020;-77
2023/09/29 05:54:06;;;;;;;29.98;14.85;;;13.80;99.90;;;;;;5078365;28;20032;-79
2023/09/29 05:56:32;;;;;;;34.55;14.43;;;13.90;99.90;;;;;;5096672;28;20020;-77
2023/09/29 05:58:58;;;;;;;32.90;14.45;;;14.00;99.90;;;;;;5075682;28;20073;-76
2023/09/29 06:01:27;;;;;;;34.75;14.00;;;14.00;99.90;;;;;;5094375;28;20028;-77
2023/09/29 06:03:53;;;;;;;24.77;13.15;;;14.10;99.90;;;;;;5082293;28;20043;-76
2023/09/29 06:06:19;;;;;;;24.30;13.77;;;14.20;99.90;;;;;;5075692;28;20031;-76
2023/09/29 06:08:45;;;;;;;34.40;15.38;;;14.20;99.90;;;;;;5094455;28;20024;-76
2023/09/29 06:11:11;;;;;;;26.90;15.60;;;14.20;99.90;;;;;;5094263;28;20034;-76
2023/09/29 06:13:42;;;;;;;32.53;15.10;;;14.30;99.90;;;;;;5076673;28;20031;-76
2023/09/29 06:16:08;;;;;;;30.20;13.57;;;14.40;99.90;;;;;;5077928;28;20051;-77
2023/09/29 06:18:34;;;;;;;30.10;13.32;;;14.50;99.90;;;;;;5095507;28;20107;-78
2023/09/29 06:21:00;;;;;;;26.85;12.77;;;14.50;99.90;;;;;;5095325;28;20020;-76
2023/09/29 06:23:26;;;;;;;24.52;12.30;;;14.70;99.90;;;;;;5095486;28;20153;-76
2023/09/29 06:25:59;;;;;;;23.27;12.40;;;14.80;99.90;;;;;;5095883;28;20020;-76
2023/09/29 06:28:25;;;;;;;23.50;11.85;;;14.90;99.90;;;;;;5095434;28;20024;-77
2023/09/29 06:30:52;;;;;;;21.27;10.27;;;15.00;99.90;;;;;;5075883;28;20078;-76
2023/09/29 06:33:19;;;;;;;22.40;10.70;;;15.00;99.90;;;;;;5094590;28;20093;-77
2023/09/29 06:35:45;;;;;;;24.52;10.02;;;15.20;99.90;;;;;;5076974;28;20027;-78
2023/09/29 06:38:11;;;;;;;29.95;10.80;;;15.20;99.90;;;;;;5077502;28;20377;-76
2023/09/29 06:40:37;;;;;;;21.05;10.57;;;;;;;;;;5095249;28;20102;-76
2023/09/29 06:43:03;;;;;;;34.95;10.95;;;15.40;99.90;;;;;;5095537;28;20554;-76
2023/09/29 06:45:30;;;;;;;27.98;10.18;;;15.50;99.90;;;;;;5093794;28;20115;-77
2023/09/29 06:47:56;;;;;;;25.70;9.43;;;15.60;99.90;;;;;;5076201;28;20059;-76
2023/09/29 06:50:22;;;;;;;23.85;10.07;;;15.70;99.90;;;;;;5094871;28;20060;-77
2023/09/29 06:52:48;;;;;;;25.98;10.57;;;15.80;99.90;;;;;;5095525;28;20024;-76
2023/09/29 06:55:14;;;;;;;25.02;9.88;;;16.00;99.90;;;;;;5076831;28;20080;-77
2023/09/29 06:57:41;;;;;;;28.23;10.38;;;16.10;99.90;;;;;;5095064;28;20102;-78
2023/09/29 07:00:08;;;;;;;19.40;8.93;;;16.20;99.90;;;;;;5095018;28;20027;-76
2023/09/29 11:20:16;;;;;;;14.25;12.52;;;;;;;;;;5096669;27;20329;-80
2023/09/29 11:22:43;;;;;;;20.40;13.30;;;;;;;;;;5091163;28;20384;-79
2023/09/29 14:29:06;;;;;;;22.23;11.85;;;;;;;;;;5130921;27;20438;-81
2023/09/29 14:31:32;;;;;;;9.88;7.93;;;;;;;;;;5111904;28;20119;-79
2023/09/29 14:33:58;;;;;;;17.23;8.13;;;;;;;;;;5110462;28;20012;-78
2023/09/29 14:36:25;;;;;;;13.30;4.47;;;;;;;;;;5102007;28;20024;-79
2023/09/29 14:38:51;;;;;;;12.90;9.77;;;;;;;;;;5092181;28;20039;-77
2023/09/29 14:41:17;;;;;;;11.88;9.30;;;;;;;;;;5100525;28;21457;-78
2023/09/29 14:43:45;;;;;;;10.35;9.32;;;;;;;;;;5110201;28;20065;-80
2023/09/29 14:46:16;;;;;;;17.38;8.75;;;;;;;;;;5091990;28;20031;-79
2023/09/29 14:48:42;;;;;;;9.67;8.63;;;;;;;;;;5110301;28;20031;-79
2023/09/29 14:51:09;;;;;;;18.92;9.13;;;;;;;;;;5109951;28;20473;-78
2023/09/29 14:53:36;;;;;;;13.93;9.70;;;;;;;;;;5110309;28;20024;-79
2023/09/29 14:56:06;;;;;;;13.45;8.70;;;;;;;;;;5092135;28;20534;-80
2023/09/29 14:58:32;;;;;;;16.63;8.55;;;;;;;;;;5110799;28;20028;-80
2023/09/29 15:00:58;;;;;;;10.07;8.05;;;;;;;;;;5109642;28;20024;-78
2023/09/29 15:03:24;;;;;;;10.07;7.68;;;;;;;;;;5104312;28;20030;-79
2023/09/29 15:05:51;;;;;;;14.35;7.68;;;;;;;;;;5110377;28;20016;-81
2023/09/29 15:08:18;;;;;;;11.77;7.63;;;;;;;;;;5109691;28;20028;-79
2023/09/29 15:10:44;;;;;;;8.45;6.93;;;;;;;;;;5109390;28;20082;-80
2023/09/29 15:13:11;;;;;;;14.23;6.88;;;;;;;;;;5105053;28;20013;-78
2023/09/29 15:15:39;;;;;;;12.45;6.65;;;;;;;;;;5109362;28;20110;-79
2023/09/29 15:18:05;;;;;;;10.90;6.60;;;;;;;;;;5110064;28;20028;-79
2023/09/29 15:20:31;;;;;;;16.58;7.32;;;;;;;;;;5109754;28;20028;-79
2023/09/29 15:22:58;;;;;;;13.48;7.18;;;;;;;;;;5109065;28;20468;-78
2023/09/29 15:25:25;;;;;;;12.68;7.65;;;;;;;;;;5109682;28;20085;-78
2023/09/29 15:27:51;;;;;;;10.25;7.47;;;;;;;;;;5109735;28;20104;-79
2023/09/29 15:30:17;;;;;;;16.63;7.55;;;;;;;;;;5109055;28;20031;-79
2023/09/29 15:32:43;;;;;;;17.67;8.23;;;;;;;;;;5110029;28;20026;-80
2023/09/29 15:35:11;;;;;;;16.25;8.00;;;;;;;;;;5109078;28;20044;-79
2023/09/29 15:37:38;;;;;;;22.73;8.60;;;;;;;;;;5109253;28;20089;-80
2023/09/29 15:40:04;;;;;;;23.60;7.93;;;;;;;;;;5097146;28;20074;-80
2023/09/29 15:42:30;;;;;;;18.83;8.32;;;;;;;;;;5095632;28;20020;-79
2023/09/29 15:44:57;;;;;;;20.02;7.60;;;;;;;;;;5095348;28;20462;-79
2023/09/29 15:47:23;;;;;;;12.35;6.95;;;;;;;;;;5096296;28;20447;-78
2023/09/29 15:49:49;;;;;;;15.35;5.80;;;;;;;;;;5095765;28;20026;-78
2023/09/29 15:52:16;;;;;;;23.35;5.60;;;;;;;;;;5095816;28;20024;-78
2023/09/29 15:54:43;;;;;;;19.58;13.00;;;;;;;;;;5096311;28;20028;-78
2023/09/29 15:57:09;;;;;;;20.88;12.57;;;;;;;;;;5095769;28;20020;-78
2023/09/29 15:59:36;;;;;;;20.33;10.23;;;;;;;;;;5096075;28;20028;-78
2023/09/29 16:02:02;;;;;;;13.80;9.23;;;;;;;;;;5095377;28;20016;-81
2023/09/29 16:04:28;;;;;;;25.50;15.82;;;;;;;;;;5094988;28;20020;-79
2023/09/29 16:06:54;;;;;;;24.83;12.13;;;;;;;;;;5095391;28;20051;-79
2023/09/29 16:09:20;;;;;;;21.25;11.60;;;;;;;;;;5095040;28;20024;-80
2023/09/29 16:11:46;;;;;;;22.55;13.75;;;;;;;;;;5095909;28;20031;-78
2023/09/29 21:49:22;;;;;;;15.00;8.43;;;15.80;99.90;;;;;;5111163;27;20410;-77
2023/09/29 21:51:47;;;;;;;20.40;7.70;;;15.70;99.90;;;;;;5109701;28;20493;-77
2023/09/29 21:54:13;;;;;;;13.93;7.35;;;15.60;99.90;;;;;;5090251;28;20028;-78
2023/09/29 22:13:05;;;;;;;25.92;8.15;;;15.50;99.90;;;;;;5111389;27;20464;-78
